LAP weather

Manuel Márquez de León International Airport
La Paz, Baja California Sur, Mexico

Public forecast

Using degrees Celsius for public forecast. Weather courtesy of forecast.io.

Current aviation weather report (METAR) for Manuel Márquez de León International Airport

Retrieved 2019/11/12 22:40 UTC (0 seconds ago):

MMLP 122240Z 36008KT 10SM FEW020 27/16 A2991 RMK 8/100 MDT CU 2-3QUAD

Aviation forecast (TAF) for Manuel Márquez de León International Airport

Retrieved 2019/11/12 18:09 UTC (4 hours ago):

TAF MMLP 121707Z 1218/1318 15006KT P6SM SCT030 SCT090 FM130600 08008KT P6SM BKN020 FM131500 03008KT P6SM SCT025